createdAt,value
2023-01-11T00:01:03.014Z,75.57
2023-01-11T01:53:58.588Z,77.54
2023-01-11T01:54:59.511Z,77.54
2023-01-11T01:55:59.670Z,77.54
2023-01-11T01:56:59.612Z,77.61
2023-01-11T01:57:59.733Z,77.51
2023-01-11T01:58:59.858Z,77.51
2023-01-11T01:59:59.905Z,77.37
2023-01-11T02:01:00.033Z,77.37
2023-01-11T02:02:00.065Z,77.26
2023-01-11T02:03:00.248Z,77.16
2023-01-11T02:04:00.217Z,77.16
2023-01-11T02:05:00.266Z,77.02
2023-01-11T02:06:00.418Z,76.92
2023-01-11T02:07:01.158Z,76.92
2023-01-11T02:57:06.667Z,80.21
2023-01-11T02:58:07.629Z,80.10
2023-01-11T02:59:07.815Z,80.10
2023-01-11T03:00:07.755Z,80.10
2023-01-11T03:01:07.837Z,79.96
2023-01-11T03:02:07.942Z,79.96
2023-01-11T03:03:08.109Z,79.85
2023-01-11T03:04:08.071Z,79.75
2023-01-11T03:05:08.194Z,79.65
2023-01-11T03:06:08.268Z,79.51
2023-01-11T03:07:08.373Z,79.51
2023-01-11T03:08:08.401Z,79.51
2023-01-11T03:09:08.472Z,79.51
2023-01-11T03:27:46.096Z,80.58
2023-01-11T03:28:47.078Z,80.58
2023-01-11T03:29:47.135Z,80.68
2023-01-11T03:30:47.202Z,80.79
2023-01-11T03:31:47.302Z,80.79
2023-01-11T03:32:47.367Z,80.75
2023-01-11T03:33:47.489Z,80.75
2023-01-11T03:34:47.536Z,80.85
2023-01-11T03:35:47.644Z,80.75
2023-01-11T03:36:47.734Z,80.61
2023-01-11T03:37:47.841Z,80.71
2023-01-11T03:38:47.882Z,80.51
2023-01-11T03:39:48.011Z,80.40
2023-01-11T03:40:48.054Z,80.19
2023-01-11T03:41:48.149Z,80.19
2023-01-11T04:21:04.886Z,82.03
2023-01-11T04:40:48.059Z,82.76
2023-01-11T06:01:37.066Z,84.31
2023-01-11T06:02:38.007Z,84.21
2023-01-11T06:03:38.029Z,84.28
2023-01-11T06:04:38.116Z,84.28
2023-01-11T06:05:38.162Z,84.17
2023-01-11T06:06:38.329Z,83.93
2023-01-11T06:07:38.314Z,83.83
2023-01-11T06:08:38.477Z,83.62
2023-01-11T06:09:38.439Z,83.41
2023-01-11T06:10:38.532Z,83.26
2023-01-11T06:11:38.628Z,83.16
2023-01-11T06:12:38.785Z,83.06
2023-01-11T06:13:38.797Z,83.06
2023-01-11T06:54:13.973Z,85.21
2023-01-11T07:29:30.567Z,84.86
2023-01-11T07:30:31.648Z,84.86
2023-01-11T07:36:41.705Z,84.44
2023-01-11T07:37:42.060Z,84.34
2023-01-11T07:38:42.328Z,84.55
2023-01-11T07:39:43.952Z,84.65
2023-01-11T07:40:42.220Z,84.51
2023-01-11T07:41:42.277Z,84.51
2023-01-11T07:42:42.391Z,84.41
2023-01-11T08:09:33.985Z,85.06
2023-01-11T08:55:53.277Z,85.71
2023-01-11T08:56:54.391Z,85.71
2023-01-11T08:57:54.340Z,85.61
2023-01-11T08:58:54.366Z,85.61
2023-01-11T08:59:54.520Z,85.47
2023-01-11T09:00:54.588Z,85.26
2023-01-11T09:01:54.837Z,85.26
2023-01-11T09:02:54.772Z,85.11
2023-01-11T09:03:54.886Z,84.91
2023-01-11T09:04:54.884Z,84.81
2023-01-11T09:05:54.952Z,84.70
2023-01-11T09:06:54.997Z,84.56
2023-01-11T09:07:55.107Z,84.56
2023-01-11T09:08:55.238Z,84.45
2023-01-11T09:09:55.346Z,84.45
2023-01-11T09:10:55.428Z,84.31
2023-01-11T09:11:55.436Z,84.21
2023-01-11T09:12:55.523Z,84.00
2023-01-11T09:13:55.616Z,83.90
2023-01-11T09:14:55.819Z,83.59
2023-01-11T09:15:55.848Z,83.59
2023-01-11T09:43:11.531Z,84.87
2023-01-11T10:27:55.893Z,84.38
2023-01-11T10:28:56.951Z,84.48
2023-01-11T10:36:02.833Z,84.44
2023-01-11T10:37:01.736Z,84.13
2023-01-11T10:38:01.907Z,84.23
2023-01-11T10:39:01.879Z,84.13
2023-01-11T10:40:01.982Z,84.09
2023-01-11T10:41:01.984Z,83.99
2023-01-11T10:42:02.117Z,83.78
2023-01-11T10:43:02.160Z,83.58
2023-01-11T10:44:02.278Z,83.48
2023-01-11T10:45:02.352Z,83.44
2023-01-11T10:46:02.452Z,83.44
2023-01-11T10:47:02.508Z,83.44
2023-01-11T10:48:02.594Z,83.54
2023-01-11T10:49:02.659Z,83.44
2023-01-11T10:50:05.957Z,83.19
2023-01-11T10:51:02.865Z,83.19
2023-01-11T10:52:02.927Z,83.09
2023-01-11T10:53:03.169Z,83.09
2023-01-11T10:54:03.115Z,82.98
2023-01-11T10:55:03.210Z,82.84
2023-01-11T10:56:03.312Z,82.64
2023-01-11T10:57:05.215Z,82.43
2023-01-11T10:58:03.898Z,82.43
2023-01-11T10:59:03.543Z,82.43
2023-01-11T11:00:03.674Z,82.43
2023-01-11T11:01:03.792Z,82.33
2023-01-11T11:02:03.849Z,82.23
2023-01-11T11:03:03.907Z,81.81
2023-01-11T11:04:03.995Z,81.71
2023-01-11T11:05:04.071Z,81.81
2023-01-11T11:06:04.167Z,81.88
2023-01-11T11:07:04.243Z,81.88
2023-01-11T11:08:04.341Z,81.88
2023-01-11T11:09:04.429Z,81.98
2023-01-11T11:10:04.558Z,82.09
2023-01-11T11:11:04.575Z,81.98
2023-01-11T11:12:04.632Z,81.98
2023-01-11T11:13:04.708Z,81.98
2023-01-11T11:14:04.795Z,81.95
2023-01-11T11:15:04.887Z,81.84
2023-01-11T11:16:05.007Z,81.84
2023-01-11T11:17:05.027Z,81.84
2023-01-11T11:18:05.104Z,81.81
2023-01-11T11:19:05.190Z,81.70
2023-01-11T11:20:05.307Z,81.49
2023-01-11T11:21:05.368Z,81.49
2023-01-11T11:22:05.455Z,81.39
2023-01-11T11:23:05.544Z,81.29
2023-01-11T11:24:05.622Z,81.29
2023-01-11T11:25:05.709Z,81.15
2023-01-11T11:26:05.810Z,81.05
2023-01-11T11:27:06.010Z,80.84
2023-01-11T11:28:05.968Z,80.74
2023-01-11T11:29:06.043Z,80.53
2023-01-11T11:30:06.148Z,80.12
2023-01-11T11:31:06.206Z,80.12
2023-01-11T11:32:06.276Z,80.02
2023-01-11T11:33:06.348Z,80.12
2023-01-11T11:34:06.432Z,80.12
2023-01-11T11:35:06.518Z,80.02
2023-01-11T11:36:06.649Z,80.12
2023-01-11T12:13:32.413Z,81.92
2023-01-11T12:14:36.399Z,81.92
2023-01-11T12:15:33.559Z,81.92
2023-01-11T12:20:40.625Z,81.77
2023-01-11T12:21:41.763Z,81.77
2023-01-11T12:22:41.632Z,81.88
2023-01-11T12:29:30.843Z,81.23
2023-01-11T12:30:30.935Z,80.91
2023-01-11T12:31:31.003Z,80.91
2023-01-11T12:36:35.926Z,78.72
2023-01-11T12:37:38.072Z,78.61
2023-01-11T12:38:37.000Z,78.61
2023-01-11T12:41:30.685Z,77.55
2023-01-11T12:42:28.924Z,77.45
2023-01-11T12:58:39.825Z,79.44
2023-01-11T12:59:40.642Z,79.54
2023-01-11T13:00:40.786Z,79.85
2023-01-11T13:01:40.977Z,79.95
2023-01-11T13:02:40.967Z,79.95
2023-01-11T13:03:40.989Z,79.71
2023-01-11T13:04:41.066Z,79.71
2023-01-11T13:05:41.132Z,79.61
2023-01-11T13:06:41.205Z,79.50
2023-01-11T13:07:41.290Z,79.71
2023-01-11T13:08:41.388Z,79.81
2023-01-11T13:09:41.417Z,80.02
2023-01-11T13:10:41.511Z,80.12
2023-01-11T13:11:41.593Z,79.91
2023-01-11T13:12:41.765Z,79.88
2023-01-11T13:13:41.784Z,79.81
2023-01-11T13:14:41.888Z,79.77
2023-01-11T13:22:55.111Z,80.40
2023-01-11T13:23:56.033Z,80.51
2023-01-11T13:24:56.212Z,80.91
2023-01-11T13:25:56.172Z,81.02
2023-01-11T13:26:56.480Z,81.09
2023-01-11T13:27:56.385Z,81.19
2023-01-11T13:28:56.797Z,80.98
2023-01-11T13:33:59.180Z,81.53
2023-01-11T13:35:09.298Z,81.53
2023-01-11T13:36:00.270Z,81.53
2023-01-11T13:37:00.362Z,81.43
2023-01-11T13:38:00.483Z,81.33
2023-01-11T13:39:00.627Z,81.33
2023-01-11T13:40:00.627Z,81.60
2023-01-11T13:41:00.721Z,81.70
2023-01-11T13:42:00.791Z,81.60
2023-01-11T13:43:00.865Z,81.49
2023-01-11T13:44:00.960Z,81.39
2023-01-11T13:45:01.045Z,81.29
2023-01-11T13:46:01.148Z,81.19
2023-01-11T13:47:01.218Z,81.39
2023-01-11T13:48:01.297Z,81.29
2023-01-11T13:49:01.429Z,81.29
2023-01-11T13:50:01.462Z,81.15
2023-01-11T13:51:01.554Z,81.05
2023-01-11T13:52:01.624Z,81.05
2023-01-11T13:53:03.707Z,80.84
2023-01-11T13:54:01.832Z,80.84
2023-01-11T13:55:01.909Z,80.84
2023-01-11T13:56:01.961Z,80.84
2023-01-11T13:57:02.041Z,80.94
2023-01-11T13:58:02.158Z,81.15
2023-01-11T13:59:02.214Z,81.15
2023-01-11T14:00:02.300Z,81.05
2023-01-11T14:01:02.455Z,81.15
2023-01-11T14:02:02.493Z,81.11
2023-01-11T14:03:02.653Z,81.01
2023-01-11T14:04:02.639Z,81.01
2023-01-11T14:05:02.769Z,81.01
2023-01-11T14:06:02.791Z,81.01
2023-01-11T14:07:02.933Z,81.01
2023-01-11T14:08:03.022Z,81.21
2023-01-11T14:09:03.114Z,81.11
2023-01-11T14:10:03.215Z,81.11
2023-01-11T14:11:03.304Z,80.91
2023-01-11T14:12:03.383Z,80.91
2023-01-11T14:13:03.479Z,81.11
2023-01-11T14:14:03.605Z,81.11
2023-01-11T14:15:03.648Z,81.21
2023-01-11T14:16:03.776Z,81.21
2023-01-11T14:17:03.813Z,81.21
2023-01-11T14:18:03.888Z,81.32
2023-01-11T14:19:04.155Z,81.32
2023-01-11T14:20:04.055Z,81.21
2023-01-11T14:21:04.141Z,81.21
2023-01-11T14:22:04.225Z,81.32
2023-01-11T14:23:04.307Z,81.42
2023-01-11T14:24:04.440Z,81.62
2023-01-11T14:25:04.467Z,81.52
2023-01-11T14:26:04.525Z,81.32
2023-01-11T14:27:04.661Z,81.32
2023-01-11T14:28:04.671Z,81.42
2023-01-11T14:29:04.770Z,81.62
2023-01-11T14:30:04.849Z,81.93
2023-01-11T14:31:05.042Z,82.04
2023-01-11T14:32:05.034Z,82.04
2023-01-11T14:33:05.089Z,82.04
2023-01-11T14:34:05.223Z,82.14
2023-01-11T14:35:05.293Z,81.87
2023-01-11T14:36:05.335Z,81.97
2023-01-11T14:37:05.434Z,82.07
2023-01-11T14:38:05.499Z,82.07
2023-01-11T14:39:05.600Z,82.18
2023-01-11T14:40:05.655Z,82.18
2023-01-11T14:41:05.775Z,82.48
2023-01-11T14:42:05.860Z,82.48
2023-01-11T14:43:05.942Z,82.28
2023-01-11T14:44:06.029Z,82.39
2023-01-11T14:45:06.107Z,82.39
2023-01-11T14:46:06.283Z,82.48
2023-01-11T14:47:06.289Z,82.59
2023-01-11T14:48:06.404Z,83.11
2023-01-11T14:49:06.485Z,83.41
2023-01-11T14:50:06.599Z,83.51
2023-01-11T14:51:06.652Z,83.51
2023-01-11T14:52:06.748Z,83.31
2023-01-11T14:53:06.837Z,83.20
2023-01-11T14:54:06.944Z,83.20
2023-01-11T14:55:06.970Z,82.90
2023-01-11T14:56:07.046Z,82.90
2023-01-11T14:57:07.127Z,83.00
2023-01-11T14:58:07.233Z,83.20
2023-01-11T14:59:07.364Z,83.51
2023-01-11T15:00:07.610Z,83.62
2023-01-11T15:02:59.065Z,83.83
2023-01-11T15:05:59.070Z,84.27
2023-01-11T15:06:59.887Z,84.38
2023-01-11T15:09:49.637Z,84.79
2023-01-11T15:21:02.411Z,86.31
2023-01-11T15:23:51.542Z,86.61
2023-01-11T15:24:52.274Z,86.72
2023-01-11T15:25:52.178Z,86.58
2023-01-11T15:26:52.321Z,86.47
2023-01-11T15:34:51.995Z,86.52
2023-01-11T15:54:56.781Z,87.54
2023-01-11T15:55:57.779Z,87.54
2023-01-11T15:56:57.932Z,87.65
2023-01-11T16:00:02.537Z,87.54
2023-01-11T16:01:04.591Z,87.44
2023-01-11T16:09:13.934Z,87.54
2023-01-11T16:10:15.024Z,87.65
2023-01-11T16:11:15.094Z,87.75
2023-01-11T16:12:15.159Z,87.54
2023-01-11T16:13:15.197Z,87.51
2023-01-11T16:14:15.315Z,87.30
2023-01-11T16:15:15.388Z,87.19
2023-01-11T16:16:25.247Z,87.09
2023-01-11T16:17:15.512Z,86.88
2023-01-11T16:21:31.196Z,86.68
2023-01-11T16:22:32.152Z,86.68
2023-01-11T16:23:32.246Z,86.58
2023-01-11T16:24:32.337Z,86.58
2023-01-11T16:25:32.436Z,86.58
2023-01-11T16:26:32.514Z,86.47
2023-01-11T16:27:32.610Z,86.33
2023-01-11T16:28:32.668Z,86.23
2023-01-11T16:29:34.485Z,86.13
2023-01-11T16:30:32.864Z,86.13
2023-01-11T16:31:33.008Z,85.82
2023-01-11T16:32:33.058Z,85.82
2023-01-11T16:33:33.070Z,85.71
2023-01-11T16:34:33.149Z,85.61
2023-01-11T16:35:33.265Z,85.51
2023-01-11T16:36:33.305Z,85.51
2023-01-11T16:37:33.390Z,85.41
2023-01-11T16:38:33.460Z,85.10
2023-01-11T16:39:33.542Z,85.10
2023-01-11T16:40:33.610Z,85.10
2023-01-11T16:45:00.356Z,85.20
2023-01-11T16:46:01.262Z,85.41
2023-01-11T16:47:01.274Z,85.41
2023-01-11T16:48:01.356Z,85.30
2023-01-11T16:49:01.382Z,85.20
2023-01-11T16:50:01.495Z,85.30
2023-01-11T16:51:01.613Z,85.20
2023-01-11T16:52:01.617Z,85.20
2023-01-11T16:55:13.549Z,85.10
2023-01-11T16:56:14.543Z,85.10
2023-01-11T16:57:16.412Z,85.30
2023-01-11T16:58:14.678Z,85.30
2023-01-11T16:59:14.793Z,85.20
2023-01-11T17:00:14.816Z,85.10
2023-01-11T17:01:14.984Z,84.89
2023-01-11T17:02:15.082Z,84.89
2023-01-11T17:03:15.072Z,84.79
2023-01-11T17:04:19.204Z,84.69
2023-01-11T17:05:15.224Z,84.69
2023-01-11T17:06:15.300Z,84.58
2023-01-11T17:07:15.432Z,84.48
2023-01-11T17:08:15.464Z,84.54
2023-01-11T17:09:19.607Z,84.54
2023-01-11T17:10:15.601Z,84.44
2023-01-11T17:11:15.678Z,84.34
2023-01-11T17:12:15.804Z,84.34
2023-01-11T17:13:15.842Z,84.44
2023-01-11T17:14:15.905Z,84.23
2023-01-11T17:15:15.981Z,84.13
2023-01-11T17:16:16.223Z,84.13
2023-01-11T17:17:16.400Z,84.23
2023-01-11T17:18:16.210Z,84.23
2023-01-11T17:19:16.332Z,84.23
2023-01-11T17:20:16.369Z,84.13
2023-01-11T17:21:18.309Z,84.03
2023-01-11T17:22:16.552Z,84.13
2023-01-11T17:23:16.651Z,84.13
2023-01-11T18:04:59.111Z,86.87
2023-01-11T18:05:59.987Z,86.87
2023-01-11T18:07:00.047Z,86.97
2023-01-11T18:08:00.043Z,86.93
2023-01-11T18:40:26.382Z,88.10
2023-01-11T18:41:27.426Z,88.06
2023-01-11T18:42:27.554Z,88.17
2023-01-11T18:43:27.526Z,88.06
2023-01-11T18:44:27.615Z,87.96
2023-01-11T19:00:54.423Z,88.41
2023-01-11T19:06:38.830Z,88.62
2023-01-11T19:07:39.651Z,88.62
2023-01-11T19:08:39.551Z,88.62
2023-01-11T19:09:40.747Z,88.57
2023-01-11T19:10:39.772Z,88.57
2023-01-11T19:11:39.901Z,88.37
2023-01-11T19:12:42.820Z,88.17
2023-01-11T19:24:23.502Z,88.06
2023-01-11T19:25:24.481Z,88.06
2023-01-11T19:26:24.564Z,88.17
2023-01-11T19:35:14.628Z,87.99
2023-01-11T19:36:15.744Z,87.99
2023-01-11T19:37:15.692Z,87.99
2023-01-11T19:38:15.704Z,87.85
2023-01-11T19:39:15.753Z,87.75
2023-01-11T19:40:15.843Z,87.65
2023-01-11T19:41:15.935Z,87.44
2023-01-11T19:42:16.175Z,87.24
2023-01-11T19:43:16.088Z,86.99
2023-01-11T19:44:16.177Z,86.99
2023-01-11T19:45:16.266Z,86.88
2023-01-11T19:46:30.149Z,86.68
2023-01-11T19:47:16.479Z,86.58
2023-01-11T19:48:16.636Z,86.47
2023-01-11T19:49:16.644Z,86.27
2023-01-11T19:50:16.743Z,86.13
2023-01-11T19:51:16.865Z,86.13
2023-01-11T19:52:16.961Z,86.02
2023-01-11T19:53:17.021Z,85.92
2023-01-11T19:54:17.075Z,85.92
2023-01-11T19:55:17.145Z,85.82
2023-01-11T19:56:17.245Z,85.71
2023-01-11T19:57:17.280Z,85.71
2023-01-11T19:58:17.371Z,85.61
2023-01-11T19:59:17.437Z,85.61
2023-01-11T20:00:17.522Z,85.41
2023-01-11T20:01:17.658Z,85.41
2023-01-11T20:02:17.712Z,85.41
2023-01-11T20:03:17.755Z,85.36
2023-01-11T20:04:17.833Z,85.26
2023-01-11T20:05:17.921Z,84.95
2023-01-11T20:06:18.076Z,84.85
2023-01-11T20:07:18.927Z,84.75
2023-01-11T20:08:18.153Z,84.54
2023-01-11T20:09:18.238Z,84.54
2023-01-11T20:10:18.309Z,84.44
2023-01-11T20:11:18.428Z,84.44
2023-01-11T20:12:18.468Z,84.44
2023-01-11T20:13:18.615Z,84.34
2023-01-11T20:14:18.658Z,84.34
2023-01-11T20:15:18.815Z,84.13
2023-01-11T20:16:18.962Z,84.03
2023-01-11T20:17:19.006Z,84.03
2023-01-11T20:18:18.987Z,84.03
2023-01-11T20:19:19.073Z,84.03
2023-01-11T20:20:19.158Z,84.03
2023-01-11T20:21:19.273Z,84.03
2023-01-11T20:22:19.328Z,83.92
2023-01-11T20:23:19.414Z,83.92
2023-01-11T20:24:19.521Z,83.92
2023-01-11T20:25:19.605Z,83.83
2023-01-11T20:26:19.717Z,83.83
2023-01-11T20:27:19.769Z,83.83
2023-01-11T20:28:19.840Z,83.92
2023-01-11T20:45:53.885Z,85.28
2023-01-11T20:46:55.024Z,85.28
2023-01-11T20:47:55.084Z,85.38
2023-01-11T20:48:55.117Z,85.38
2023-01-11T20:49:55.148Z,85.28
2023-01-11T20:50:55.241Z,85.17
2023-01-11T20:51:55.341Z,85.17
2023-01-11T20:52:55.428Z,85.07
2023-01-11T20:53:55.502Z,84.97
2023-01-11T20:55:58.455Z,84.83
2023-01-11T20:57:00.583Z,84.72
2023-01-11T20:57:58.497Z,84.72
2023-01-11T20:58:58.532Z,84.72
2023-01-11T20:59:58.594Z,84.42
2023-01-11T21:00:58.663Z,84.42
2023-01-11T21:01:58.897Z,84.42
2023-01-11T21:18:29.366Z,85.46
2023-01-11T21:19:27.922Z,85.57
2023-01-11T21:20:27.713Z,85.57
2023-01-11T21:21:27.722Z,85.46
2023-01-11T21:22:27.895Z,85.31
2023-01-11T21:23:27.983Z,85.22
2023-01-11T21:24:27.998Z,85.01
2023-01-11T21:25:28.250Z,84.80
2023-01-11T21:26:29.247Z,84.80
2023-01-11T21:27:28.387Z,84.49
2023-01-11T21:38:54.366Z,85.15
2023-01-11T21:44:31.197Z,85.60
2023-01-11T21:53:37.691Z,86.12
2023-01-11T22:03:24.437Z,86.32
2023-01-11T22:04:25.653Z,86.22
2023-01-11T22:05:25.641Z,86.02
2023-01-11T22:06:25.585Z,85.91
2023-01-11T22:07:25.596Z,85.57
2023-01-11T22:08:25.702Z,85.46
2023-01-11T23:06:46.564Z,84.09
2023-01-11T23:13:20.158Z,82.79
2023-01-11T23:14:03.326Z,82.79
2023-01-11T23:16:34.004Z,82.75
2023-01-11T23:17:35.028Z,82.75
2023-01-11T23:18:35.040Z,82.75
2023-01-11T23:19:35.156Z,82.75
2023-01-11T23:20:35.105Z,82.65
2023-01-11T23:21:35.209Z,82.55
2023-01-11T23:22:35.310Z,82.55
2023-01-11T23:23:35.374Z,82.20
2023-01-11T23:24:35.452Z,82.10
2023-01-11T23:25:35.529Z,82.10
2023-01-11T23:26:35.617Z,81.89
2023-01-11T23:27:35.707Z,81.89
2023-01-11T23:28:35.786Z,81.99
2023-01-11T23:29:35.865Z,81.96
2023-01-11T23:30:35.954Z,81.85
2023-01-11T23:31:36.094Z,81.75
2023-01-11T23:32:36.177Z,81.75
2023-01-11T23:33:36.197Z,81.85
2023-01-11T23:34:36.276Z,81.85
2023-01-11T23:35:36.371Z,81.85
2023-01-11T23:36:36.429Z,81.85
2023-01-11T23:37:36.531Z,81.75
2023-01-11T23:38:36.601Z,81.71
2023-01-11T23:39:36.701Z,81.61
2023-01-11T23:40:36.789Z,81.30
2023-01-11T23:41:36.862Z,81.30
2023-01-11T23:42:36.983Z,81.30
2023-01-11T23:43:37.043Z,80.79
2023-01-11T23:44:37.148Z,80.79
2023-01-11T23:45:37.257Z,80.58
2023-01-11T23:46:37.273Z,80.68
2023-01-11T23:47:37.372Z,80.47
2023-01-11T23:48:37.486Z,80.47
2023-01-11T23:49:37.567Z,80.37
2023-01-11T23:50:37.707Z,80.37
2023-01-11T23:51:37.709Z,80.37
2023-01-11T23:52:37.847Z,80.37
2023-01-11T23:53:37.944Z,80.37
2023-01-11T23:54:38.021Z,80.37
2023-01-11T23:55:38.065Z,79.75
2023-01-11T23:56:38.296Z,79.55
2023-01-11T23:57:38.266Z,79.75
2023-01-11T23:58:38.371Z,79.96
2023-01-11T23:59:38.415Z,79.96
